createdAt,value
2023-02-28T00:01:30.715Z,4.88
2023-02-28T00:03:59.585Z,4.28
2023-02-28T00:06:28.220Z,4.22
2023-02-28T00:08:56.771Z,5.43
2023-02-28T00:11:26.918Z,4.20
2023-02-28T00:13:55.353Z,4.72
2023-02-28T00:16:24.665Z,6.45
2023-02-28T00:18:53.369Z,6.78
2023-02-28T00:21:22.257Z,7.07
2023-02-28T00:23:50.596Z,6.80
2023-02-28T00:26:21.560Z,7.40
2023-02-28T00:28:53.919Z,6.28
2023-02-28T00:31:22.554Z,6.78
2023-02-28T00:33:52.111Z,7.10
2023-02-28T00:36:20.716Z,7.72
2023-02-28T00:38:48.873Z,6.88
2023-02-28T00:41:17.681Z,6.00
2023-02-28T00:43:46.029Z,6.30
2023-02-28T00:46:15.985Z,6.13
2023-02-28T00:48:44.486Z,5.43
2023-02-28T00:51:13.276Z,4.28
2023-02-28T00:53:41.539Z,5.20
2023-02-28T00:56:10.228Z,6.00
2023-02-28T00:58:38.376Z,5.72
2023-02-28T01:01:06.974Z,6.40
2023-02-28T01:03:37.086Z,6.57
2023-02-28T01:06:06.243Z,8.27
2023-02-28T01:08:34.565Z,8.07
2023-02-28T01:11:10.636Z,7.75
2023-02-28T01:13:38.946Z,7.38
2023-02-28T01:16:08.593Z,7.70
2023-02-28T01:18:38.922Z,8.05
2023-02-28T01:21:07.846Z,7.82
2023-02-28T01:23:36.523Z,8.93
2023-02-28T01:26:08.625Z,8.07
2023-02-28T01:28:36.800Z,8.60
2023-02-28T01:31:05.834Z,8.73
2023-02-28T01:33:34.502Z,9.70
2023-02-28T01:36:06.439Z,8.70
2023-02-28T01:38:35.467Z,8.45
2023-02-28T01:41:04.567Z,9.32
2023-02-28T01:43:34.376Z,9.45
2023-02-28T01:46:02.996Z,10.38
2023-02-28T01:48:33.785Z,9.73
2023-02-28T01:51:07.656Z,9.82
2023-02-28T01:53:37.645Z,10.82
2023-02-28T01:56:07.302Z,10.20
2023-02-28T01:58:35.677Z,9.90
2023-02-28T02:01:04.617Z,10.20
2023-02-28T02:03:40.983Z,9.02
2023-02-28T02:06:10.950Z,9.70
2023-02-28T02:08:39.304Z,9.35
2023-02-28T02:11:10.104Z,9.77
2023-02-28T02:13:56.633Z,9.82
2023-02-28T02:16:39.888Z,8.65
2023-02-28T02:19:19.777Z,10.15
2023-02-28T02:22:16.534Z,8.90
2023-02-28T02:25:07.536Z,9.35
2023-02-28T02:27:57.305Z,9.55
2023-02-28T02:30:48.411Z,9.75
2023-02-28T02:36:06.765Z,10.88
2023-02-28T02:38:37.965Z,10.35
2023-02-28T02:41:11.306Z,9.25
2023-02-28T02:43:43.800Z,10.10
2023-02-28T02:46:15.020Z,10.50
2023-02-28T02:48:44.242Z,9.38
2023-02-28T02:51:16.683Z,9.95
2023-02-28T02:53:50.346Z,10.63
2023-02-28T02:56:21.227Z,9.60
2023-02-28T02:58:51.952Z,9.40
2023-02-28T03:01:29.162Z,11.15
2023-02-28T03:04:00.567Z,10.88
2023-02-28T03:06:30.312Z,10.00
2023-02-28T03:08:58.899Z,10.70
2023-02-28T03:11:27.505Z,11.15
2023-02-28T03:14:35.251Z,10.50
2023-02-28T03:17:19.123Z,10.10
2023-02-28T03:19:56.747Z,11.45
2023-02-28T03:22:52.093Z,10.77
2023-02-28T03:25:23.821Z,10.45
2023-02-28T03:27:58.312Z,10.77
2023-02-28T03:30:30.373Z,11.05
2023-02-28T03:33:01.929Z,11.25
2023-02-28T03:35:33.676Z,10.63
2023-02-28T03:38:07.923Z,10.88
2023-02-28T03:40:37.483Z,11.23
2023-02-28T03:43:09.857Z,13.02
2023-02-28T03:45:39.900Z,11.70
2023-02-28T03:48:12.104Z,11.80
2023-02-28T03:50:42.739Z,12.48
2023-02-28T03:53:15.477Z,11.17
2023-02-28T03:55:46.152Z,12.73
2023-02-28T03:58:18.608Z,13.02
2023-02-28T04:00:49.720Z,13.80
2023-02-28T04:03:18.062Z,12.00
2023-02-28T04:05:51.405Z,12.75
2023-02-28T04:08:21.501Z,12.52
2023-02-28T04:10:54.026Z,12.88
2023-02-28T04:13:22.214Z,11.50
2023-02-28T04:15:50.746Z,12.05
2023-02-28T04:18:19.012Z,12.88
2023-02-28T04:20:47.643Z,12.18
2023-02-28T04:23:15.886Z,12.55
2023-02-28T04:25:45.821Z,11.35
2023-02-28T04:28:14.085Z,11.93
2023-02-28T04:30:42.567Z,11.18
2023-02-28T04:33:10.852Z,11.60
2023-02-28T04:35:39.343Z,11.02
2023-02-28T04:38:07.614Z,10.82
2023-02-28T04:40:36.094Z,11.25
2023-02-28T04:43:05.809Z,10.40
2023-02-28T04:45:34.978Z,11.10
2023-02-28T04:48:03.276Z,10.80
2023-02-28T04:50:31.761Z,11.68
2023-02-28T04:53:00.173Z,11.50
2023-02-28T04:55:28.612Z,12.07
2023-02-28T04:57:56.982Z,12.23
2023-02-28T05:00:26.976Z,11.80
2023-02-28T05:02:55.226Z,12.90
2023-02-28T05:05:24.009Z,11.77
2023-02-28T05:07:52.416Z,13.00
2023-02-28T05:10:21.114Z,12.63
2023-02-28T05:12:49.959Z,12.90
2023-02-28T05:15:19.123Z,13.95
2023-02-28T05:17:48.731Z,13.32
2023-02-28T05:20:18.335Z,13.00
2023-02-28T05:22:46.813Z,15.10
2023-02-28T05:25:18.845Z,15.65
2023-02-28T05:27:47.107Z,16.02
2023-02-28T05:30:16.383Z,18.58
2023-02-28T05:32:44.788Z,16.90
2023-02-28T05:35:14.725Z,15.27
2023-02-28T05:37:42.980Z,16.98
2023-02-28T05:40:12.780Z,15.77
2023-02-28T05:42:41.069Z,16.77
2023-02-28T05:45:10.710Z,17.00
2023-02-28T05:47:38.951Z,17.38
2023-02-28T05:50:10.360Z,15.85
2023-02-28T05:52:40.475Z,20.88
2023-02-28T05:55:09.961Z,16.90
2023-02-28T05:57:38.159Z,16.17
2023-02-28T06:00:08.077Z,15.10
2023-02-28T06:02:40.864Z,15.07
2023-02-28T06:05:12.775Z,14.93
2023-02-28T06:07:42.435Z,14.85
2023-02-28T06:10:12.348Z,16.00
2023-02-28T06:12:42.803Z,13.63
2023-02-28T06:15:15.095Z,14.77
2023-02-28T06:17:43.845Z,13.90
2023-02-28T06:20:13.917Z,13.80
2023-02-28T06:22:43.952Z,13.95
2023-02-28T06:25:12.947Z,15.60
2023-02-28T06:27:41.213Z,15.77
2023-02-28T06:30:10.771Z,17.40
2023-02-28T06:32:39.168Z,19.10
2023-02-28T06:35:08.165Z,18.33
2023-02-28T06:37:36.402Z,19.98
2023-02-28T06:40:08.569Z,23.05
2023-02-28T06:42:37.086Z,24.48
2023-02-28T06:45:10.362Z,23.02
2023-02-28T06:47:39.303Z,18.48
2023-02-28T06:50:09.009Z,19.60
2023-02-28T06:52:38.461Z,19.95
2023-02-28T06:55:09.978Z,20.17
2023-02-28T06:57:38.703Z,20.02
2023-02-28T07:00:10.244Z,21.33
2023-02-28T07:02:38.926Z,21.27
2023-02-28T07:05:07.989Z,20.67
2023-02-28T07:07:37.444Z,19.00
2023-02-28T07:10:06.655Z,19.13
2023-02-28T07:12:36.328Z,19.52
2023-02-28T07:15:05.357Z,20.35
2023-02-28T07:17:33.728Z,19.90
2023-02-28T07:20:02.269Z,16.70
2023-02-28T07:22:30.759Z,18.75
2023-02-28T07:24:59.469Z,21.40
2023-02-28T07:27:27.747Z,27.73
2023-02-28T07:29:57.876Z,19.17
2023-02-28T07:32:26.127Z,18.33
2023-02-28T07:34:54.884Z,19.38
2023-02-28T07:37:23.157Z,18.85
2023-02-28T07:39:52.474Z,17.05
2023-02-28T07:42:20.702Z,15.95
2023-02-28T07:44:49.246Z,15.55
2023-02-28T07:47:19.040Z,14.60
2023-02-28T07:49:47.769Z,13.00
2023-02-28T07:52:16.042Z,14.27
2023-02-28T07:54:44.578Z,16.65
2023-02-28T07:57:12.901Z,13.77
2023-02-28T07:59:41.420Z,14.55
2023-02-28T08:02:12.061Z,15.15
2023-02-28T08:04:41.967Z,12.45
2023-02-28T08:07:10.899Z,11.23
2023-02-28T08:09:39.667Z,11.85
2023-02-28T08:12:08.490Z,9.27
2023-02-28T08:14:38.713Z,9.68
2023-02-28T08:17:07.094Z,9.55
2023-02-28T08:19:35.691Z,10.48
2023-02-28T08:22:05.334Z,11.00
2023-02-28T08:24:34.587Z,10.13
2023-02-28T08:27:02.854Z,10.38
2023-02-28T08:29:31.609Z,8.55
2023-02-28T08:32:00.384Z,8.10
2023-02-28T08:34:29.182Z,7.95
2023-02-28T08:36:57.333Z,8.45
2023-02-28T08:39:27.447Z,8.48
2023-02-28T08:42:06.745Z,8.23
2023-02-28T08:44:36.506Z,8.65
2023-02-28T08:47:04.933Z,8.35
2023-02-28T08:49:33.456Z,8.30
2023-02-28T08:52:01.839Z,9.25
2023-02-28T08:54:35.430Z,9.05
2023-02-28T08:57:03.748Z,9.25
2023-02-28T08:59:32.579Z,8.50
2023-02-28T09:02:00.930Z,8.48
2023-02-28T09:04:31.740Z,10.45
2023-02-28T09:09:31.781Z,10.45
2023-02-28T09:12:01.618Z,10.70
2023-02-28T09:14:30.084Z,9.45
2023-02-28T09:16:58.383Z,8.90
2023-02-28T09:19:26.907Z,9.88
2023-02-28T09:21:55.117Z,10.35
2023-02-28T09:24:23.646Z,11.48
2023-02-28T09:27:03.893Z,9.30
2023-02-28T09:32:03.740Z,11.23
2023-02-28T09:34:33.428Z,12.18
2023-02-28T09:37:01.835Z,10.25
2023-02-28T09:39:30.511Z,8.52
2023-02-28T09:41:58.836Z,9.43
2023-02-28T09:44:32.763Z,10.02
2023-02-28T09:47:07.386Z,14.63
2023-02-28T09:49:40.385Z,9.98
2023-02-28T09:52:12.617Z,9.35
2023-02-28T09:54:41.611Z,8.15
2023-02-28T09:57:12.074Z,9.85
2023-02-28T09:59:49.455Z,10.13
2023-02-28T10:02:51.860Z,9.13
2023-02-28T10:05:22.722Z,10.00
2023-02-28T10:08:03.395Z,9.57
2023-02-28T10:10:37.247Z,11.07
2023-02-28T10:13:07.650Z,8.93
2023-02-28T10:15:36.918Z,10.70
2023-02-28T10:18:09.636Z,11.27
2023-02-28T10:20:41.531Z,10.38
2023-02-28T10:23:15.684Z,9.88
2023-02-28T10:25:49.119Z,9.05
2023-02-28T10:28:20.038Z,11.95
2023-02-28T10:30:51.342Z,9.45
2023-02-28T10:33:24.381Z,10.75
2023-02-28T10:35:53.925Z,10.25
2023-02-28T10:38:24.930Z,11.90
2023-02-28T10:40:53.965Z,13.00
2023-02-28T10:43:24.155Z,9.55
2023-02-28T10:45:59.358Z,10.10
2023-02-28T10:48:39.703Z,10.90
2023-02-28T10:51:10.172Z,11.23
2023-02-28T10:53:59.679Z,10.80
2023-02-28T10:56:30.905Z,11.48
2023-02-28T10:59:01.523Z,11.00
2023-02-28T11:01:41.804Z,12.30
2023-02-28T11:04:23.041Z,12.95
2023-02-28T11:07:00.154Z,10.60
2023-02-28T11:09:31.677Z,11.48
2023-02-28T11:12:00.269Z,9.88
2023-02-28T11:14:30.912Z,8.70
2023-02-28T11:17:03.215Z,9.65
2023-02-28T11:19:39.763Z,10.45
2023-02-28T11:22:09.494Z,10.48
2023-02-28T11:24:39.601Z,11.65
2023-02-28T11:27:11.723Z,11.13
2023-02-28T11:29:49.687Z,9.40
2023-02-28T11:32:21.581Z,9.93
2023-02-28T11:35:05.634Z,8.68
2023-02-28T11:37:36.025Z,8.50
2023-02-28T11:40:07.418Z,11.57
2023-02-28T11:42:51.397Z,11.02
2023-02-28T11:45:31.531Z,11.38
2023-02-28T11:48:06.686Z,11.55
2023-02-28T11:50:47.500Z,10.75
2023-02-28T11:55:51.731Z,9.88
2023-02-28T11:58:31.103Z,9.82
2023-02-28T12:01:07.829Z,9.27
2023-02-28T12:03:45.067Z,9.93
2023-02-28T12:06:23.896Z,9.57
2023-02-28T12:09:03.225Z,11.35
2023-02-28T12:11:39.528Z,11.15
2023-02-28T12:14:50.557Z,12.82
2023-02-28T12:17:33.132Z,12.48
2023-02-28T12:20:10.080Z,11.75
2023-02-28T12:22:43.284Z,11.30
2023-02-28T12:25:46.048Z,12.82
2023-02-28T12:28:16.341Z,16.70
2023-02-28T12:30:49.815Z,18.20
2023-02-28T12:33:20.397Z,13.60
2023-02-28T12:35:52.408Z,11.55
2023-02-28T12:38:25.218Z,17.42
2023-02-28T12:40:57.432Z,14.05
2023-02-28T12:43:30.128Z,28.58
2023-02-28T12:46:01.294Z,18.20
2023-02-28T12:48:40.250Z,13.70
2023-02-28T12:51:09.642Z,20.30
2023-02-28T12:53:48.095Z,14.00
2023-02-28T12:56:20.029Z,20.85
2023-02-28T12:58:50.750Z,13.98
2023-02-28T13:01:38.834Z,16.13
2023-02-28T13:04:32.702Z,17.75
2023-02-28T13:07:19.570Z,13.30
2023-02-28T13:09:56.066Z,13.00
2023-02-28T13:12:24.967Z,12.85
2023-02-28T13:14:53.482Z,13.65
2023-02-28T13:17:23.311Z,15.02
2023-02-28T13:19:59.794Z,12.52
2023-02-28T13:22:41.080Z,13.40
2023-02-28T13:25:54.638Z,13.45
2023-02-28T13:29:09.421Z,12.00
2023-02-28T13:32:14.927Z,12.35
2023-02-28T13:34:51.918Z,12.57
2023-02-28T13:37:39.387Z,11.40
2023-02-28T13:40:31.833Z,12.13
2023-02-28T13:43:00.249Z,12.10
2023-02-28T13:45:31.083Z,12.20
2023-02-28T13:48:02.471Z,13.57
2023-02-28T13:50:35.528Z,25.20
2023-02-28T13:53:36.809Z,15.27
2023-02-28T13:56:13.483Z,16.70
2023-02-28T13:58:51.534Z,13.00
2023-02-28T14:01:44.225Z,15.90
2023-02-28T14:04:43.436Z,19.88
2023-02-28T14:07:19.763Z,16.88
2023-02-28T14:09:49.896Z,15.90
2023-02-28T14:12:58.960Z,15.85
2023-02-28T14:15:42.058Z,17.55
2023-02-28T14:18:18.396Z,15.48
2023-02-28T14:20:48.970Z,15.70
2023-02-28T14:23:33.216Z,15.77
2023-02-28T14:26:08.052Z,14.82
2023-02-28T14:28:50.248Z,16.05
2023-02-28T14:31:23.313Z,17.38
2023-02-28T14:34:06.242Z,20.25
2023-02-28T14:36:36.210Z,19.67
2023-02-28T14:39:09.830Z,21.65
2023-02-28T14:41:40.268Z,18.48
2023-02-28T14:44:17.646Z,17.40
2023-02-28T14:46:47.694Z,15.10
2023-02-28T14:49:21.813Z,17.33
2023-02-28T14:51:52.047Z,16.13
2023-02-28T14:54:25.617Z,15.57
2023-02-28T14:56:54.112Z,16.58
2023-02-28T14:59:29.359Z,140.50
2023-02-28T15:02:21.119Z,26.20
2023-02-28T15:04:58.216Z,14.63
2023-02-28T15:07:30.565Z,14.52
2023-02-28T15:10:16.638Z,14.45
2023-02-28T15:12:51.154Z,14.27
2023-02-28T15:15:25.316Z,14.35
2023-02-28T15:18:01.699Z,14.17
2023-02-28T15:20:30.388Z,14.88
2023-02-28T15:22:59.133Z,15.38
2023-02-28T15:25:29.611Z,19.85
2023-02-28T15:27:59.182Z,25.92
2023-02-28T15:30:30.422Z,17.98
2023-02-28T15:33:09.521Z,19.40
2023-02-28T15:35:38.054Z,15.40
2023-02-28T15:38:17.561Z,15.55
2023-02-28T15:40:54.684Z,13.98
2023-02-28T15:43:28.754Z,13.25
2023-02-28T15:45:59.456Z,14.80
2023-02-28T15:48:30.817Z,12.67
2023-02-28T15:51:05.313Z,11.95
2023-02-28T15:53:36.774Z,11.18
2023-02-28T15:56:19.311Z,11.18
2023-02-28T15:58:47.758Z,13.05
2023-02-28T16:01:23.153Z,13.07
2023-02-28T16:03:53.533Z,13.13
2023-02-28T16:06:43.646Z,13.57
2023-02-28T16:09:14.318Z,12.73
2023-02-28T16:11:46.898Z,12.75
2023-02-28T16:14:18.546Z,13.85
2023-02-28T16:16:48.655Z,15.00
2023-02-28T16:19:17.088Z,16.27
2023-02-28T16:21:45.651Z,14.57
2023-02-28T16:24:14.315Z,16.58
2023-02-28T16:26:48.082Z,16.38
2023-02-28T16:29:21.076Z,15.15
2023-02-28T16:31:49.641Z,16.35
2023-02-28T16:34:18.057Z,17.85
2023-02-28T16:36:51.118Z,20.65
2023-02-28T16:39:21.885Z,21.70
2023-02-28T16:41:52.752Z,16.98
2023-02-28T16:44:28.901Z,19.88
2023-02-28T16:46:57.750Z,16.40
2023-02-28T16:49:26.884Z,15.10
2023-02-28T16:51:55.522Z,13.52
2023-02-28T16:54:23.838Z,16.23
2023-02-28T16:56:54.021Z,14.88
2023-02-28T16:59:26.080Z,15.60
2023-02-28T17:01:55.068Z,29.58
2023-02-28T17:04:23.461Z,18.90
2023-02-28T17:06:52.192Z,16.90
2023-02-28T17:09:26.216Z,20.55
2023-02-28T17:12:00.785Z,19.73
2023-02-28T17:14:29.225Z,19.77
2023-02-28T17:17:00.131Z,14.40
2023-02-28T17:19:29.141Z,18.65
2023-02-28T17:21:57.828Z,18.00
2023-02-28T17:24:31.204Z,20.02
2023-02-28T17:27:02.455Z,20.50
2023-02-28T17:29:30.780Z,19.13
2023-02-28T17:32:03.145Z,18.17
2023-02-28T17:34:38.333Z,19.15
2023-02-28T17:37:06.902Z,21.10
2023-02-28T17:39:35.165Z,18.50
2023-02-28T17:42:06.992Z,24.08
2023-02-28T17:44:35.290Z,24.10
2023-02-28T17:47:03.846Z,21.85
2023-02-28T17:49:32.120Z,24.50
2023-02-28T17:52:00.818Z,27.13
2023-02-28T17:54:29.199Z,28.85
2023-02-28T17:56:57.715Z,36.38
2023-02-28T17:59:34.259Z,36.65
2023-02-28T18:02:03.035Z,26.33
2023-02-28T18:04:31.310Z,22.65
2023-02-28T18:07:01.104Z,27.85
2023-02-28T18:09:29.490Z,27.88
2023-02-28T18:11:58.374Z,32.50
2023-02-28T18:14:28.994Z,49.45
2023-02-28T18:16:58.395Z,34.70
2023-02-28T18:19:27.044Z,21.02
2023-02-28T18:21:56.034Z,24.02
2023-02-28T18:24:26.792Z,25.25
2023-02-28T18:26:55.813Z,24.80
2023-02-28T18:29:25.669Z,25.60
2023-02-28T18:31:56.504Z,22.33
2023-02-28T18:34:26.201Z,21.40
2023-02-28T18:36:54.954Z,22.75
2023-02-28T18:39:23.259Z,25.70
2023-02-28T18:41:51.934Z,23.85
2023-02-28T18:44:21.536Z,26.23
2023-02-28T18:46:50.331Z,26.63
2023-02-28T18:49:20.222Z,29.98
2023-02-28T18:51:49.367Z,31.70
2023-02-28T18:54:18.300Z,32.50
2023-02-28T18:56:46.855Z,28.83
2023-02-28T18:59:15.190Z,27.73
2023-02-28T19:01:47.339Z,31.50
2023-02-28T19:04:15.723Z,26.92
2023-02-28T19:06:45.685Z,31.60
2023-02-28T19:09:13.959Z,29.15
2023-02-28T19:11:42.514Z,31.27
2023-02-28T19:14:10.825Z,30.38
2023-02-28T19:16:39.527Z,34.42
2023-02-28T19:19:07.799Z,35.25
2023-02-28T19:21:37.293Z,37.63
2023-02-28T19:24:07.881Z,30.85
2023-02-28T19:26:36.849Z,34.15
2023-02-28T19:29:05.969Z,31.05
2023-02-28T19:31:35.768Z,38.28
2023-02-28T19:34:04.421Z,35.92
2023-02-28T19:36:33.628Z,35.13
2023-02-28T19:39:01.871Z,35.05
2023-02-28T19:41:32.328Z,34.33
2023-02-28T19:44:00.684Z,33.10
2023-02-28T19:46:29.416Z,35.92
2023-02-28T19:48:57.803Z,37.05
2023-02-28T19:51:27.775Z,43.35
2023-02-28T19:53:56.200Z,38.65
2023-02-28T19:56:24.918Z,29.83
2023-02-28T19:58:54.584Z,33.20
2023-02-28T20:01:23.215Z,34.80
2023-02-28T20:03:52.512Z,37.53
2023-02-28T20:06:21.041Z,41.30
2023-02-28T20:08:49.334Z,36.47
2023-02-28T20:11:21.431Z,40.10
2023-02-28T20:13:49.835Z,45.45
2023-02-28T20:16:19.990Z,43.20
2023-02-28T20:18:54.472Z,42.80
2023-02-28T20:21:23.038Z,40.58
2023-02-28T20:23:51.351Z,42.67
2023-02-28T20:26:20.333Z,41.72
2023-02-28T20:28:49.061Z,48.10
2023-02-28T20:31:22.277Z,50.03
2023-02-28T20:33:51.699Z,52.10
2023-02-28T20:36:21.466Z,46.70
2023-02-28T20:38:50.122Z,52.33
2023-02-28T20:41:19.276Z,54.25
2023-02-28T20:43:47.654Z,49.05
2023-02-28T20:46:16.461Z,57.35
2023-02-28T20:48:46.171Z,52.50
2023-02-28T20:51:14.735Z,56.42
2023-02-28T20:53:43.344Z,62.03
2023-02-28T20:56:13.749Z,58.20
2023-02-28T20:58:42.070Z,50.53
2023-02-28T21:01:16.072Z,56.22
2023-02-28T21:03:47.560Z,56.10
2023-02-28T21:06:17.282Z,57.17
2023-02-28T21:08:45.961Z,58.60
2023-02-28T21:11:15.904Z,57.28
2023-02-28T21:13:45.067Z,61.75
2023-02-28T21:16:15.352Z,56.35
2023-02-28T21:18:46.103Z,58.83
2023-02-28T21:21:16.392Z,57.20
2023-02-28T21:23:46.672Z,59.90
2023-02-28T21:26:17.601Z,55.80
2023-02-28T21:28:50.539Z,59.50
2023-02-28T21:31:20.598Z,53.92
2023-02-28T21:33:50.644Z,59.85
2023-02-28T21:36:21.716Z,63.88
2023-02-28T21:38:51.438Z,60.13
2023-02-28T21:41:21.910Z,57.00
2023-02-28T21:43:50.471Z,57.45
2023-02-28T21:46:21.435Z,58.50
2023-02-28T21:48:52.701Z,59.13
2023-02-28T21:51:22.850Z,54.65
2023-02-28T21:53:51.828Z,54.70
2023-02-28T21:56:22.061Z,55.60
2023-02-28T21:58:50.924Z,52.95
2023-02-28T22:01:21.567Z,49.85
2023-02-28T22:03:51.629Z,49.33
2023-02-28T22:06:22.437Z,53.33
2023-02-28T22:08:52.075Z,52.70
2023-02-28T22:11:22.446Z,52.92
2023-02-28T22:13:52.641Z,61.75
2023-02-28T22:16:22.365Z,60.83
2023-02-28T22:18:52.255Z,52.85
2023-02-28T22:21:23.605Z,51.58
2023-02-28T22:23:51.849Z,49.30
2023-02-28T22:26:22.517Z,51.25
2023-02-28T22:28:51.642Z,47.93
2023-02-28T22:31:22.799Z,53.85
2023-02-28T22:33:54.907Z,56.63
2023-02-28T22:36:23.750Z,53.58
2023-02-28T22:38:52.714Z,52.60
2023-02-28T22:41:23.218Z,58.13
2023-02-28T22:43:53.425Z,56.43
2023-02-28T22:46:22.906Z,56.38
2023-02-28T22:48:53.036Z,66.50
2023-02-28T22:51:24.080Z,64.83
2023-02-28T22:53:53.310Z,67.47
2023-02-28T22:56:25.369Z,64.88
2023-02-28T22:58:55.133Z,67.70
2023-02-28T23:01:25.515Z,68.28
2023-02-28T23:03:55.513Z,69.22
2023-02-28T23:06:25.889Z,71.13
2023-02-28T23:08:57.688Z,70.72
2023-02-28T23:11:29.239Z,63.35
2023-02-28T23:14:00.479Z,61.13
2023-02-28T23:16:30.929Z,57.65
2023-02-28T23:19:01.911Z,55.13
2023-02-28T23:21:31.400Z,55.90
2023-02-28T23:24:00.043Z,54.65
2023-02-28T23:26:28.810Z,57.50
2023-02-28T23:28:58.166Z,56.38
2023-02-28T23:31:26.972Z,55.35
2023-02-28T23:33:57.688Z,55.50
2023-02-28T23:36:28.427Z,52.60
2023-02-28T23:38:57.125Z,53.97
2023-02-28T23:41:26.444Z,54.45
2023-02-28T23:43:54.768Z,52.63
2023-02-28T23:46:23.700Z,54.63
2023-02-28T23:48:51.992Z,58.75
2023-02-28T23:51:22.612Z,58.67
2023-02-28T23:53:53.466Z,57.83
2023-02-28T23:56:24.059Z,56.50
2023-02-28T23:58:53.733Z,61.80
